Time;durP1;ratioP1;P1;durP2;ratioP2;P2;SDS_P1;SDS_P2;PMS_P1;PMS_P2;Temp;Humidity;BMP_temperature;BMP_pressure;BME280_temperature;BME280_humidity;BME280_pressure;Samples;Min_cycle;Max_cycle;Signal;HPM_P1;HPM_P2
2021/03/04 00:00:58;;;;;;;;;;;;;;;21.26;38.12;102217.47;3105485;28;115901;-61
2021/03/04 00:02:30;;;;;;;;;;;;;;;21.26;38.24;102213.81;3110419;28;114547;-60
2021/03/04 00:04:02;;;;;;;;;;;;;;;21.24;38.22;102208.50;3110098;28;115927;-60
2021/03/04 00:05:34;;;;;;;;;;;;;;;21.23;38.46;102203.97;3104472;28;116560;-60
2021/03/04 00:07:06;;;;;;;;;;;;;;;21.22;38.13;102207.91;3103060;28;116305;-61
2021/03/04 00:08:38;;;;;;;;;;;;;;;21.22;38.42;102207.91;3107430;28;114480;-60
2021/03/04 00:10:12;;;;;;;;;;;;;;;21.21;38.06;102206.22;3109914;28;114548;-60
2021/03/04 00:11:43;;;;;;;;;;;;;;;21.20;38.07;102201.75;3109705;27;117229;-60
2021/03/04 00:13:15;;;;;;;;;;;;;;;21.20;38.46;102203.72;3111919;27;116860;-60
2021/03/04 00:14:46;;;;;;;;;;;;;;;21.19;38.19;102202.88;3107819;27;113815;-60
2021/03/04 00:16:17;;;;;;;;;;;;;;;21.22;38.56;102207.91;3108564;28;113774;-61
2021/03/04 00:17:49;;;;;;;;;;;;;;;21.26;38.46;102208.19;3109562;28;113974;-59
2021/03/04 00:19:22;;;;;;;;;;;;;;;21.22;38.95;102202.28;3104921;28;113852;-60
2021/03/04 00:20:53;;;;;;;;;;;;;;;21.21;38.98;102202.59;3108085;28;113916;-61
2021/03/04 00:22:25;;;;;;;;;;;;;;;21.19;38.93;102194.44;3109657;28;113963;-61
2021/03/04 00:23:56;;;;;;;;;;;;;;;21.17;39.14;102199.47;3108065;28;114191;-59
2021/03/04 00:25:29;;;;;;;;;;;;;;;21.17;39.06;102187.38;3104657;28;114042;-60
2021/03/04 00:27:00;;;;;;;;;;;;;;;21.16;39.15;102195.00;3103753;28;114123;-60
2021/03/04 00:28:32;;;;;;;;;;;;;;;21.15;38.93;102198.94;3109813;28;114002;-60
2021/03/04 00:30:04;;;;;;;;;;;;;;;21.14;38.92;102197.25;3110282;28;113736;-60
2021/03/04 00:31:36;;;;;;;;;;;;;;;21.14;39.23;102199.22;3109948;28;113751;-60
2021/03/04 00:33:07;;;;;;;;;;;;;;;21.13;39.02;102191.91;3110962;27;113849;-60
2021/03/04 00:34:39;;;;;;;;;;;;;;;21.12;39.35;102196.63;3097785;28;113944;-60
2021/03/04 00:36:10;;;;;;;;;;;;;;;21.10;39.21;102184.84;3097368;28;115789;-59
2021/03/04 00:37:41;;;;;;;;;;;;;;;21.11;39.03;102194.13;3117696;27;115140;-59
2021/03/04 00:39:12;;;;;;;;;;;;;;;21.10;39.04;102187.66;3123324;27;114190;-59
2021/03/04 00:40:44;;;;;;;;;;;;;;;21.08;39.09;102187.09;3124395;27;115178;-59
2021/03/04 00:42:15;;;;;;;;;;;;;;;21.08;39.42;102186.25;3107948;28;115090;-59
2021/03/04 00:43:46;;;;;;;;;;;;;;;21.07;39.41;102184.59;3101820;28;115180;-59
2021/03/04 00:45:19;;;;;;;;;;;;;;;21.05;39.13;102190.47;3095704;28;115631;-59
2021/03/04 00:47:08;;;;;;;;;;;;;;;21.03;39.47;102178.66;3099889;28;114095;-60
2021/03/04 00:48:39;;;;;;;;;;;;;;;21.01;39.35;102180.94;3099565;28;115243;-59
2021/03/04 00:50:12;;;;;;;;;;;;;;;21.02;39.33;102187.38;3107938;28;115344;-59
2021/03/04 00:51:43;;;;;;;;;;;;;;;21.00;39.58;102192.44;3108626;28;115317;-59
2021/03/04 00:53:14;;;;;;;;;;;;;;;20.98;39.69;102186.28;3120358;27;115306;-59
2021/03/04 00:54:45;;;;;;;;;;;;;;;20.98;39.37;102183.47;3121015;27;115521;-59
2021/03/04 00:56:17;;;;;;;;;;;;;;;20.95;39.38;102189.63;3113891;28;115072;-59
2021/03/04 00:57:48;;;;;;;;;;;;;;;20.92;39.78;102182.63;3112447;27;116081;-59
2021/03/04 00:59:19;;;;;;;;;;;;;;;20.91;39.64;102180.91;3115072;27;115853;-58
2021/03/04 01:00:50;;;;;;;;;;;;;;;20.89;39.48;102180.38;3124339;27;116019;-59
2021/03/04 01:02:22;;;;;;;;;;;;;;;20.89;39.78;102176.72;3124810;27;115846;-58
2021/03/04 01:03:53;;;;;;;;;;;;;;;20.86;39.87;102181.75;3111438;28;115673;-59
2021/03/04 01:05:24;;;;;;;;;;;;;;;20.84;39.99;102181.22;3086520;28;117576;-57
2021/03/04 01:06:56;;;;;;;;;;;;;;;20.82;39.79;102188.22;3091826;28;115852;-56
2021/03/04 01:08:27;;;;;;;;;;;;;;;20.81;40.07;102184.56;3117648;27;115458;-57
2021/03/04 01:09:58;;;;;;;;;;;;;;;20.80;39.82;102185.69;3122226;27;116274;-56
2021/03/04 01:11:29;;;;;;;;;;;;;;;20.78;39.99;102179.53;3100728;28;115709;-56
2021/03/04 01:13:01;;;;;;;;;;;;;;;20.77;39.83;102183.44;3118358;27;115765;-58
2021/03/04 01:14:32;;;;;;;;;;;;;;;20.75;39.97;102180.09;3109898;28;114700;-58
2021/03/04 01:16:04;;;;;;;;;;;;;;;20.75;40.07;102180.09;3120796;27;115792;-56
2021/03/04 01:17:36;;;;;;;;;;;;;;;20.75;40.13;102184.88;3127517;27;116037;-57
2021/03/04 01:19:07;;;;;;;;;;;;;;;20.71;40.29;102176.16;3110549;28;113783;-57
2021/03/04 01:20:38;;;;;;;;;;;;;;;20.71;40.27;102178.13;3119248;27;113796;-57
2021/03/04 01:22:10;;;;;;;;;;;;;;;20.70;40.43;102177.28;3109612;28;113897;-57
2021/03/04 01:23:41;;;;;;;;;;;;;;;20.68;40.16;102173.88;3119148;27;113997;-57
2021/03/04 01:25:13;;;;;;;;;;;;;;;20.66;40.44;102170.53;3122010;27;113806;-57
2021/03/04 01:26:44;;;;;;;;;;;;;;;20.64;40.26;102172.75;3121070;27;113892;-57
2021/03/04 01:28:15;;;;;;;;;;;;;;;20.63;40.01;102173.88;3122750;27;114016;-56
2021/03/04 01:29:46;;;;;;;;;;;;;;;20.63;40.44;102170.22;3108685;28;113863;-57
2021/03/04 01:31:17;;;;;;;;;;;;;;;20.60;40.19;102170.78;3120440;27;113688;-57
2021/03/04 01:32:49;;;;;;;;;;;;;;;20.59;40.34;102169.94;3110231;28;113707;-57
2021/03/04 01:34:20;;;;;;;;;;;;;;;20.58;40.53;102170.25;3110520;28;114303;-57
2021/03/04 01:35:52;;;;;;;;;;;;;;;20.57;40.42;102175.03;3122331;27;113965;-57
2021/03/04 01:37:23;;;;;;;;;;;;;;;20.56;40.65;102172.47;3123986;27;113698;-59
2021/03/04 01:38:54;;;;;;;;;;;;;;;20.55;40.52;102170.78;3105512;28;114030;-59
2021/03/04 01:40:25;;;;;;;;;;;;;;;20.54;40.34;102169.94;3108977;28;114014;-60
2021/03/04 01:41:57;;;;;;;;;;;;;;;20.51;40.72;102167.69;3111298;27;115339;-60
2021/03/04 01:43:28;;;;;;;;;;;;;;;20.52;40.44;102166.59;3110788;28;115152;-59
2021/03/04 01:44:59;;;;;;;;;;;;;;;20.49;40.43;102158.69;3119868;27;115309;-60
2021/03/04 01:46:31;;;;;;;;;;;;;;;20.48;40.71;102165.47;3124642;27;115554;-59
2021/03/04 01:48:03;;;;;;;;;;;;;;;20.46;40.56;102162.06;3099966;28;115273;-59
2021/03/04 01:49:35;;;;;;;;;;;;;;;20.47;40.44;102169.38;3105748;28;116297;-59
2021/03/04 01:51:07;;;;;;;;;;;;;;;20.46;40.33;102162.06;3105676;28;115063;-60
2021/03/04 01:52:39;;;;;;;;;;;;;;;20.45;40.68;102168.81;3119522;27;115246;-60
2021/03/04 01:54:11;;;;;;;;;;;;;;;20.45;40.79;102162.34;3109514;28;115202;-59
2021/03/04 01:55:42;;;;;;;;;;;;;;;20.44;40.20;102169.09;3108377;28;115384;-59
2021/03/04 01:57:14;;;;;;;;;;;;;;;20.41;40.72;102167.69;3109994;27;115119;-58
2021/03/04 01:58:45;;;;;;;;;;;;;;;20.40;40.57;102166.84;3100361;28;116237;-59
2021/03/04 02:00:18;;;;;;;;;;;;;;;20.39;40.70;102158.72;3103500;28;116007;-59
2021/03/04 02:01:50;;;;;;;;;;;;;;;20.39;40.78;102164.31;3123779;27;115641;-59
2021/03/04 02:03:22;;;;;;;;;;;;;;;20.37;40.37;102160.94;3124366;27;117779;-59
2021/03/04 02:04:54;;;;;;;;;;;;;;;20.37;40.90;102158.13;3123670;27;115635;-60
2021/03/04 02:06:32;;;;;;;;;;;;;;;20.36;40.71;102154.47;3121172;27;115894;-59
2021/03/04 02:08:10;;;;;;;;;;;;;;;20.34;40.63;102153.94;3106105;28;115727;-60
2021/03/04 02:09:46;;;;;;;;;;;;;;;20.34;40.71;102150.28;3107889;28;116129;-60
2021/03/04 02:11:25;;;;;;;;;;;;;;;20.34;40.47;102155.88;3112440;27;115882;-57
2021/03/04 02:13:16;;;;;;;;;;;;;;;20.30;40.58;102147.19;3110204;28;115179;-59
2021/03/04 02:14:50;;;;;;;;;;;;;;;20.30;40.88;102149.16;3108117;28;114543;-59
2021/03/04 02:16:26;;;;;;;;;;;;;;;20.28;40.69;102146.56;3122387;27;115984;-59
2021/03/04 02:18:17;;;;;;;;;;;;;;;20.26;40.78;102148.00;3096682;28;114802;-60
2021/03/04 02:19:49;;;;;;;;;;;;;;;20.27;40.38;102144.03;3114980;27;115851;-59
2021/03/04 02:21:30;;;;;;;;;;;;;;;20.25;40.48;102152.75;3124643;27;115886;-59
2021/03/04 02:23:11;;;;;;;;;;;;;;;20.25;40.53;102147.13;3119251;27;115692;-59
2021/03/04 02:24:52;;;;;;;;;;;;;;;20.25;40.57;102144.34;3127120;27;115646;-60
2021/03/04 02:26:33;;;;;;;;;;;;;;;20.23;40.55;102160.59;3109855;28;113920;-60
2021/03/04 02:28:05;;;;;;;;;;;;;;;20.22;40.85;102149.63;3100683;28;113839;-60
2021/03/04 02:29:39;;;;;;;;;;;;;;;20.22;40.81;102141.22;3118795;27;114086;-59
2021/03/04 02:31:11;;;;;;;;;;;;;;;20.20;40.67;102143.47;3110843;28;113749;-60
2021/03/04 02:32:52;;;;;;;;;;;;;;;20.21;40.95;102139.56;3117783;27;113796;-60
2021/03/04 02:34:25;;;;;;;;;;;;;;;20.19;40.95;102136.16;3109571;28;114169;-60
2021/03/04 02:35:58;;;;;;;;;;;;;;;20.19;41.00;102130.56;3102603;28;113674;-60
2021/03/04 02:37:30;;;;;;;;;;;;;;;20.18;40.85;102132.50;3118902;27;114380;-60
2021/03/04 02:39:04;;;;;;;;;;;;;;;20.18;41.03;102126.06;3109828;28;113801;-60
2021/03/04 02:40:36;;;;;;;;;;;;;;;20.17;41.29;102132.81;3114044;27;113906;-59
2021/03/04 02:42:07;;;;;;;;;;;;;;;20.16;41.19;102125.50;3123023;27;113812;-59
2021/03/04 02:43:40;;;;;;;;;;;;;;;20.16;41.32;102122.69;3098763;28;114030;-58
2021/03/04 02:45:11;;;;;;;;;;;;;;;20.14;41.34;102124.94;3118616;27;114219;-58
2021/03/04 02:46:43;;;;;;;;;;;;;;;20.15;41.56;102132.22;3111627;28;114151;-57
2021/03/04 02:48:25;;;;;;;;;;;;;;;20.12;41.42;102121.56;3121168;27;115814;-58
2021/03/04 02:49:57;;;;;;;;;;;;;;;20.12;41.27;102118.78;3123564;27;114161;-59
2021/03/04 02:51:29;;;;;;;;;;;;;;;20.12;41.35;102119.63;3124361;27;114943;-59
2021/03/04 02:53:01;;;;;;;;;;;;;;;20.11;41.45;102125.50;3119695;27;114053;-58
2021/03/04 02:54:33;;;;;;;;;;;;;;;20.10;41.59;102121.84;3090850;28;115632;-58
2021/03/04 02:56:06;;;;;;;;;;;;;;;20.09;41.46;102122.94;3114834;27;115164;-58
2021/03/04 02:57:39;;;;;;;;;;;;;;;20.10;41.59;102124.66;3109745;28;115279;-58
2021/03/04 02:59:11;;;;;;;;;;;;;;;20.09;41.61;102127.72;3105564;28;115848;-57
2021/03/04 03:00:43;;;;;;;;;;;;;;;20.06;41.48;102117.91;3105213;28;114261;-58
2021/03/04 03:02:15;;;;;;;;;;;;;;;20.06;41.56;102114.25;3107299;27;115038;-58
2021/03/04 03:03:48;;;;;;;;;;;;;;;20.04;41.67;102119.28;3122843;27;114049;-58
2021/03/04 03:05:21;;;;;;;;;;;;;;;20.04;41.77;102111.72;3102874;28;115394;-57
2021/03/04 03:06:52;;;;;;;;;;;;;;;20.05;41.81;102113.41;3100915;28;114994;-57
2021/03/04 03:08:24;;;;;;;;;;;;;;;20.03;41.60;102112.00;3109192;28;114071;-58
2021/03/04 03:09:55;;;;;;;;;;;;;;;20.03;41.90;102120.44;3110644;27;115983;-58
2021/03/04 03:11:26;;;;;;;;;;;;;;;20.02;41.57;102113.97;3121349;27;116724;-57
2021/03/04 03:13:00;;;;;;;;;;;;;;;20.01;41.62;102111.44;3111909;27;115860;-58
2021/03/04 03:14:31;;;;;;;;;;;;;;;20.01;41.92;102109.47;3099480;28;116052;-58
2021/03/04 03:16:03;;;;;;;;;;;;;;;19.99;41.65;102106.94;3106434;28;115139;-57
2021/03/04 03:17:35;;;;;;;;;;;;;;;19.98;42.15;102108.09;3112436;27;116249;-58
2021/03/04 03:19:06;;;;;;;;;;;;;;;19.99;41.98;102112.53;3121152;27;116519;-58
2021/03/04 03:20:38;;;;;;;;;;;;;;;19.97;42.13;102111.16;3123561;27;115830;-58
2021/03/04 03:22:09;;;;;;;;;;;;;;;19.99;42.03;102111.69;3109590;28;115818;-57
2021/03/04 03:23:40;;;;;;;;;;;;;;;19.97;42.09;102103.59;3109783;28;116279;-57
2021/03/04 03:25:12;;;;;;;;;;;;;;;19.94;42.11;102106.91;3105522;28;115582;-57
2021/03/04 03:26:44;;;;;;;;;;;;;;;19.93;41.87;102104.41;3101627;28;115833;-57
2021/03/04 03:28:15;;;;;;;;;;;;;;;19.92;41.89;102108.31;3115187;27;115819;-57
2021/03/04 03:29:47;;;;;;;;;;;;;;;19.92;41.77;102106.38;3115552;27;115829;-57
2021/03/04 03:31:20;;;;;;;;;;;;;;;19.91;41.70;102115.03;3121442;27;115652;-58
2021/03/04 03:32:56;;;;;;;;;;;;;;;19.89;41.63;102111.69;3109775;28;113735;-58
2021/03/04 03:34:28;;;;;;;;;;;;;;;19.86;41.84;102104.66;3111304;27;114020;-59
2021/03/04 03:36:00;;;;;;;;;;;;;;;19.88;41.89;102104.38;3116509;27;113998;-59
2021/03/04 03:37:31;;;;;;;;;;;;;;;19.86;41.74;102104.66;3093544;28;113733;-57
2021/03/04 03:39:05;;;;;;;;;;;;;;;19.87;41.62;102105.50;3085092;28;113905;-58
2021/03/04 03:40:37;;;;;;;;;;;;;;;19.84;42.27;102106.91;3094037;28;114861;-58
2021/03/04 03:42:08;;;;;;;;;;;;;;;19.83;42.16;102094.00;3097657;28;113647;-57
2021/03/04 03:43:41;;;;;;;;;;;;;;;19.83;42.05;102094.00;3097688;28;114005;-58
2021/03/04 03:45:16;;;;;;;;;;;;;;;19.83;41.92;102094.00;3097348;28;114220;-57
2021/03/04 03:46:49;;;;;;;;;;;;;;;19.80;41.89;102097.38;3096461;28;114667;-58
2021/03/04 03:48:22;;;;;;;;;;;;;;;19.83;41.84;102096.81;3093411;28;113817;-58
2021/03/04 03:49:55;;;;;;;;;;;;;;;19.80;41.96;102093.72;3096919;28;113785;-57
2021/03/04 03:51:26;;;;;;;;;;;;;;;19.80;42.12;102088.09;3084371;28;113925;-58
2021/03/04 03:52:58;;;;;;;;;;;;;;;19.79;42.13;102092.88;3096399;28;113930;-58
2021/03/04 03:54:29;;;;;;;;;;;;;;;19.77;42.17;102092.28;3095962;28;115365;-59
2021/03/04 03:56:02;;;;;;;;;;;;;;;19.77;42.14;102095.09;3096954;28;115292;-58
2021/03/04 03:57:34;;;;;;;;;;;;;;;19.77;41.90;102097.06;3095597;28;115146;-58
2021/03/04 03:59:07;;;;;;;;;;;;;;;19.78;42.23;102095.94;3096188;28;115052;-58
2021/03/04 04:00:38;;;;;;;;;;;;;;;19.76;42.17;102090.59;3097355;28;115241;-58
2021/03/04 04:02:10;;;;;;;;;;;;;;;19.76;41.83;102096.19;3092112;28;115540;-58
2021/03/04 04:03:42;;;;;;;;;;;;;;;19.75;42.26;102097.34;3096865;28;115204;-57
2021/03/04 04:05:15;;;;;;;;;;;;;;;19.75;41.99;102086.13;3093671;28;114014;-57
2021/03/04 04:06:46;;;;;;;;;;;;;;;19.72;42.23;102097.88;3098259;28;115196;-58
2021/03/04 04:08:18;;;;;;;;;;;;;;;19.74;42.29;102098.47;3097805;28;117327;-57
2021/03/04 04:09:50;;;;;;;;;;;;;;;19.72;42.21;102089.47;3095154;28;116778;-57
2021/03/04 04:11:23;;;;;;;;;;;;;;;19.73;41.98;102093.13;3088944;28;115330;-57
2021/03/04 04:12:55;;;;;;;;;;;;;;;19.72;42.15;102089.47;3094422;28;114595;-60
2021/03/04 04:14:29;;;;;;;;;;;;;;;19.70;42.24;102086.09;3085046;28;115752;-59
2021/03/04 04:16:04;;;;;;;;;;;;;;;19.70;42.36;102082.47;3077900;28;118899;-59
2021/03/04 04:17:35;;;;;;;;;;;;;;;19.70;42.06;102083.31;3091788;28;114689;-59
2021/03/04 04:19:07;;;;;;;;;;;;;;;19.70;42.18;102085.25;3093813;28;114523;-59
2021/03/04 04:20:39;;;;;;;;;;;;;;;19.69;42.21;102092.81;3093571;28;114607;-58
2021/03/04 04:22:20;;;;;;;;;;;;;;;19.71;42.11;102098.16;3097507;28;115935;-60
2021/03/04 04:23:52;;;;;;;;;;;;;;;19.71;42.32;102093.41;3096890;28;115704;-58
2021/03/04 04:25:25;;;;;;;;;;;;;;;19.68;42.19;102085.53;3098277;28;115835;-58
2021/03/04 04:26:57;;;;;;;;;;;;;;;19.68;42.22;102101.50;3098841;28;115870;-58
2021/03/04 04:28:28;;;;;;;;;;;;;;;19.67;42.18;102094.25;3098161;28;115761;-58
2021/03/04 04:30:01;;;;;;;;;;;;;;;19.66;42.39;102092.53;3092650;28;115829;-58
2021/03/04 04:31:38;;;;;;;;;;;;;;;19.64;42.14;102090.00;3096153;28;115497;-58
2021/03/04 04:33:09;;;;;;;;;;;;;;;19.64;42.42;102091.97;3098722;28;115697;-58
2021/03/04 04:34:42;;;;;;;;;;;;;;;19.64;42.29;102092.81;3099554;28;115895;-58
2021/03/04 04:36:13;;;;;;;;;;;;;;;19.64;42.36;102090.00;3102953;28;116273;-58
2021/03/04 04:37:44;;;;;;;;;;;;;;;19.62;42.17;102091.41;3121698;27;113849;-58
2021/03/04 04:39:16;;;;;;;;;;;;;;;19.60;42.37;102088.03;3111319;28;113686;-57
2021/03/04 04:40:47;;;;;;;;;;;;;;;19.61;42.27;102084.97;3090558;28;113974;-58
2021/03/04 04:42:18;;;;;;;;;;;;;;;19.60;42.09;102085.22;3096299;28;115125;-58
2021/03/04 04:43:50;;;;;;;;;;;;;;;19.60;42.13;102088.03;3107485;28;114433;-60
2021/03/04 04:45:24;;;;;;;;;;;;;;;19.57;42.12;102085.78;3106741;28;113903;-60
2021/03/04 04:46:55;;;;;;;;;;;;;;;19.56;42.16;102087.72;3117090;27;113810;-58
2021/03/04 04:48:27;;;;;;;;;;;;;;;19.55;42.33;102086.03;3117665;27;113739;-58
2021/03/04 04:50:14;;;;;;;;;;;;;;;19.54;42.28;102085.19;3113071;27;114249;-58
2021/03/04 04:51:45;;;;;;;;;;;;;;;19.55;42.40;102083.25;3107004;28;113845;-58
2021/03/04 04:53:16;;;;;;;;;;;;;;;19.55;42.30;102088.84;3115995;27;113924;-57
2021/03/04 04:54:47;;;;;;;;;;;;;;;19.53;42.35;102082.69;3116728;27;114034;-58
2021/03/04 04:56:19;;;;;;;;;;;;;;;19.53;42.40;102086.31;3103493;28;114084;-59
2021/03/04 04:57:58;;;;;;;;;;;;;;;19.56;42.18;102081.28;3109734;28;114135;-58
2021/03/04 04:59:30;;;;;;;;;;;;;;;19.50;42.47;102083.22;3102029;28;113772;-58
2021/03/04 05:01:02;;;;;;;;;;;;;;;19.51;42.27;102084.91;3107392;28;115293;-59
2021/03/04 05:02:34;;;;;;;;;;;;;;;19.49;42.29;102093.56;3120020;27;113859;-57
2021/03/04 05:04:06;;;;;;;;;;;;;;;19.48;42.08;102085.47;3113292;27;115389;-60
2021/03/04 05:05:38;;;;;;;;;;;;;;;19.48;42.12;102091.91;3106113;28;115071;-60
2021/03/04 05:07:09;;;;;;;;;;;;;;;19.46;42.10;102088.53;3116105;27;115080;-60
2021/03/04 05:08:41;;;;;;;;;;;;;;;19.46;42.23;102093.28;3124230;27;115706;-59
2021/03/04 05:10:12;;;;;;;;;;;;;;;19.46;42.44;102093.28;3099912;28;115188;-60
2021/03/04 05:11:43;;;;;;;;;;;;;;;19.45;42.18;102094.41;3116494;27;115391;-60
2021/03/04 05:13:15;;;;;;;;;;;;;;;19.45;42.26;102094.41;3121751;27;115161;-60
2021/03/04 05:14:47;;;;;;;;;;;;;;;19.47;42.42;102086.56;3103034;28;115146;-59
2021/03/04 05:16:18;;;;;;;;;;;;;;;19.51;42.45;102099.78;3107250;28;115103;-59
2021/03/04 05:17:49;;;;;;;;;;;;;;;19.59;42.66;102094.75;3098573;28;115217;-60
2021/03/04 05:19:21;;;;;;;;;;;;;;;19.61;42.62;102103.72;3113669;27;115190;-58
2021/03/04 05:20:53;;;;;;;;;;;;;;;19.61;42.46;102096.16;3124961;27;115253;-58
2021/03/04 05:22:24;;;;;;;;;;;;;;;19.65;42.65;102102.06;3108609;28;115721;-58
2021/03/04 05:23:55;;;;;;;;;;;;;;;19.66;42.70;102101.81;3119266;27;115814;-58
2021/03/04 05:25:26;;;;;;;;;;;;;;;19.70;42.70;102099.28;3122537;27;116364;-58
2021/03/04 05:26:59;;;;;;;;;;;;;;;19.73;42.89;102104.34;3122022;27;115803;-58
2021/03/04 05:28:31;;;;;;;;;;;;;;;19.75;42.73;102097.34;3123836;27;114699;-58
2021/03/04 05:30:04;;;;;;;;;;;;;;;19.78;42.54;102093.97;3105691;28;116451;-57
2021/03/04 05:31:36;;;;;;;;;;;;;;;19.81;43.16;102093.41;3115875;27;116596;-58
2021/03/04 05:33:08;;;;;;;;;;;;;;;19.85;43.12;102094.56;3124960;27;114639;-58
2021/03/04 05:34:40;;;;;;;;;;;;;;;19.90;43.09;102099.34;3108080;28;115817;-58
2021/03/04 05:36:11;;;;;;;;;;;;;;;19.94;43.38;102094.88;3116134;27;115825;-58
2021/03/04 05:37:42;;;;;;;;;;;;;;;19.99;43.59;102097.66;3115027;27;115743;-58
2021/03/04 05:39:15;;;;;;;;;;;;;;;20.05;43.32;102104.16;3104627;28;116319;-58
2021/03/04 05:40:47;;;;;;;;;;;;;;;20.09;43.29;102099.66;3117008;27;115733;-57
2021/03/04 05:42:18;;;;;;;;;;;;;;;20.14;43.03;102091.25;3125276;27;116533;-57
2021/03/04 05:43:51;;;;;;;;;;;;;;;20.19;43.05;102094.06;3122104;27;113757;-57
2021/03/04 05:45:23;;;;;;;;;;;;;;;20.23;43.05;102093.25;3103907;28;114425;-58
2021/03/04 05:46:57;;;;;;;;;;;;;;;20.27;43.00;102090.72;3120480;27;113704;-57
2021/03/04 05:48:31;;;;;;;;;;;;;;;20.34;42.67;102088.53;3123763;27;115553;-59
2021/03/04 05:50:04;;;;;;;;;;;;;;;20.38;42.59;102092.44;3105096;28;113735;-59
2021/03/04 05:51:37;;;;;;;;;;;;;;;20.42;42.50;102091.63;3106361;28;114196;-58
2021/03/04 05:53:14;;;;;;;;;;;;;;;20.47;42.54;102087.97;3105621;28;113670;-58
2021/03/04 05:54:46;;;;;;;;;;;;;;;20.52;42.47;102092.75;3120366;27;113863;-58
2021/03/04 05:56:18;;;;;;;;;;;;;;;20.55;41.89;102086.56;3095618;28;113730;-58
2021/03/04 05:57:51;;;;;;;;;;;;;;;20.59;42.05;102080.09;3106934;28;114051;-58
2021/03/04 05:59:23;;;;;;;;;;;;;;;20.66;41.69;102085.44;3095015;28;114098;-58
2021/03/04 06:00:56;;;;;;;;;;;;;;;20.69;41.92;102085.72;3120509;27;113822;-58
2021/03/04 06:02:27;;;;;;;;;;;;;;;20.74;42.04;102082.06;3123357;27;114157;-58
2021/03/04 06:03:59;;;;;;;;;;;;;;;20.77;41.94;102082.31;3114487;28;113691;-58
2021/03/04 06:05:30;;;;;;;;;;;;;;;20.81;41.61;102083.44;3111364;27;115201;-58
2021/03/04 06:07:02;;;;;;;;;;;;;;;20.85;41.54;102087.38;3118208;27;114701;-58
2021/03/04 06:08:35;;;;;;;;;;;;;;;20.90;41.73;102085.69;3124358;27;114323;-58
2021/03/04 06:10:07;;;;;;;;;;;;;;;20.94;41.45;102092.44;3122106;27;114090;-58
2021/03/04 06:11:40;;;;;;;;;;;;;;;20.97;41.33;102087.09;3124096;27;115150;-59
2021/03/04 06:13:14;;;;;;;;;;;;;;;21.01;41.44;102093.81;3109473;28;115165;-58
2021/03/04 06:14:45;;;;;;;;;;;;;;;21.05;41.68;102085.66;3107454;28;115540;-58
2021/03/04 06:16:18;;;;;;;;;;;;;;;21.09;41.28;102089.56;3093993;28;115743;-58
2021/03/04 06:17:54;;;;;;;;;;;;;;;21.11;41.06;102091.00;3118592;27;115166;-58
2021/03/04 06:19:26;;;;;;;;;;;;;;;21.15;41.07;102094.09;3099591;28;115254;-59
2021/03/04 06:20:58;;;;;;;;;;;;;;;21.19;40.82;102092.41;3115123;27;114633;-59
2021/03/04 06:22:34;;;;;;;;;;;;;;;21.21;40.85;102093.78;3123769;27;115708;-59
2021/03/04 06:24:11;;;;;;;;;;;;;;;21.26;40.92;102101.38;3110320;28;114557;-58
2021/03/04 06:25:45;;;;;;;;;;;;;;;21.29;40.95;102098.00;3123660;27;115162;-58
2021/03/04 06:27:24;;;;;;;;;;;;;;;21.33;40.88;102096.31;3123923;27;115714;-59
2021/03/04 06:28:55;;;;;;;;;;;;;;;21.36;40.72;102095.72;3110080;28;116498;-59
2021/03/04 06:30:31;;;;;;;;;;;;;;;21.40;40.42;102096.81;3119495;27;115812;-58
2021/03/04 06:32:04;;;;;;;;;;;;;;;21.44;40.64;102102.75;3120920;27;115744;-59
2021/03/04 06:33:36;;;;;;;;;;;;;;;21.46;40.40;102098.50;3097925;28;115873;-58
2021/03/04 06:35:07;;;;;;;;;;;;;;;21.50;40.29;102102.41;3120127;27;115815;-58
2021/03/04 06:36:39;;;;;;;;;;;;;;;21.52;40.23;102091.75;3105728;27;116267;-58
2021/03/04 06:38:13;;;;;;;;;;;;;;;21.55;40.30;102099.59;3110886;28;115727;-58
2021/03/04 06:39:46;;;;;;;;;;;;;;;21.58;40.36;102098.16;3111581;28;116153;-58
2021/03/04 06:41:18;;;;;;;;;;;;;;;21.61;40.10;102101.25;3106320;28;116555;-59
2021/03/04 06:42:49;;;;;;;;;;;;;;;21.65;39.94;102098.72;3107185;28;114719;-58
2021/03/04 06:44:21;;;;;;;;;;;;;;;21.67;39.90;102104.88;3109253;28;115740;-59
2021/03/04 06:45:56;;;;;;;;;;;;;;;21.70;39.83;102104.31;3097079;28;115763;-59
2021/03/04 06:47:28;;;;;;;;;;;;;;;21.73;39.77;102106.53;3100965;28;115915;-58
2021/03/04 06:48:59;;;;;;;;;;;;;;;21.76;39.72;102110.78;3104421;28;115870;-59
2021/03/04 06:50:32;;;;;;;;;;;;;;;21.78;39.97;102116.94;3110269;28;113731;-58
2021/03/04 06:52:05;;;;;;;;;;;;;;;21.82;40.65;102109.59;3110786;27;113691;-59
2021/03/04 06:53:38;;;;;;;;;;;;;;;21.84;39.84;102119.44;3105283;27;114070;-58
2021/03/04 06:55:10;;;;;;;;;;;;;;;21.87;39.67;102115.19;3104149;28;113896;-58
2021/03/04 06:56:43;;;;;;;;;;;;;;;21.90;39.66;102111.78;3089300;28;113681;-59
2021/03/04 06:58:22;;;;;;;;;;;;;;;21.93;39.73;102117.75;3098132;28;113590;-59
2021/03/04 06:59:54;;;;;;;;;;;;;;;21.95;39.67;102118.28;3111398;27;113983;-59
2021/03/04 07:01:26;;;;;;;;;;;;;;;21.98;39.84;102114.06;3107546;27;113846;-59
2021/03/04 07:02:58;;;;;;;;;;;;;;;22.01;39.72;102119.09;3098930;28;114382;-59
2021/03/04 07:04:30;;;;;;;;;;;;;;;22.03;39.45;102123.28;3111091;28;113701;-58
2021/03/04 07:06:03;;;;;;;;;;;;;;;22.05;39.57;102123.84;3099681;28;113692;-58
2021/03/04 07:07:35;;;;;;;;;;;;;;;22.07;39.55;102123.56;3110788;28;115736;-58
2021/03/04 07:09:06;;;;;;;;;;;;;;;22.09;39.48;102124.94;3100539;28;113702;-58
2021/03/04 07:10:40;;;;;;;;;;;;;;;22.12;39.90;102134.81;3111640;28;114074;-58
2021/03/04 07:12:12;;;;;;;;;;;;;;;22.14;39.74;102140.97;3104003;28;115207;-59
2021/03/04 07:13:45;;;;;;;;;;;;;;;22.16;39.74;102133.94;3105305;28;115204;-59
2021/03/04 07:15:19;;;;;;;;;;;;;;;22.18;39.88;102137.28;3085377;28;116657;-58
2021/03/04 07:16:50;;;;;;;;;;;;;;;22.21;39.93;102137.84;3098796;28;115077;-58
2021/03/04 07:18:22;;;;;;;;;;;;;;;22.23;39.76;102133.59;3110538;27;115115;-59
2021/03/04 07:19:56;;;;;;;;;;;;;;;22.26;39.84;102137.81;3110163;27;115272;-58
2021/03/04 07:21:33;;;;;;;;;;;;;;;22.30;40.69;102141.72;3102816;28;115261;-58
2021/03/04 07:23:06;;;;;;;;;;;;;;;22.32;40.00;102131.84;3099993;28;115152;-58
2021/03/04 07:24:39;;;;;;;;;;;;;;;22.35;39.77;102138.88;3110342;28;115193;-58
2021/03/04 07:26:11;;;;;;;;;;;;;;;22.37;39.84;102140.25;3111284;28;116529;-59
2021/03/04 07:27:42;;;;;;;;;;;;;;;22.40;39.73;102133.19;3107543;27;115205;-59
2021/03/04 07:29:15;;;;;;;;;;;;;;;22.42;39.60;102148.69;3109915;28;114166;-59
2021/03/04 07:30:46;;;;;;;;;;;;;;;22.44;39.67;102145.59;3105867;28;115367;-59
2021/03/04 07:32:21;;;;;;;;;;;;;;;22.46;39.69;102148.94;3111665;28;115581;-58
2021/03/04 07:33:52;;;;;;;;;;;;;;;22.49;39.67;102149.19;3103469;28;115973;-59
2021/03/04 07:36:58;;;;;;;;;;;;;;;22.53;39.43;102141.81;3115501;27;115821;-59
2021/03/04 07:38:30;;;;;;;;;;;;;;;22.56;39.37;102146.06;3122825;27;115777;-59
2021/03/04 07:40:01;;;;;;;;;;;;;;;22.57;39.21;102140.13;3098716;28;115721;-59
2021/03/04 07:41:35;;;;;;;;;;;;;;;22.59;39.25;102137.84;3117583;27;115724;-59
2021/03/04 07:43:06;;;;;;;;;;;;;;;22.61;39.36;102144.03;3101028;28;116201;-60
2021/03/04 07:44:37;;;;;;;;;;;;;;;22.64;39.35;102142.59;3106012;27;115934;-60
2021/03/04 07:46:08;;;;;;;;;;;;;;;22.68;38.99;102156.94;3112321;27;114709;-59
2021/03/04 07:47:40;;;;;;;;;;;;;;;22.70;39.14;102154.72;3122739;27;114602;-60
2021/03/04 07:49:12;;;;;;;;;;;;;;;22.71;39.10;102162.03;3109008;28;115852;-59
2021/03/04 07:50:54;;;;;;;;;;;;;;;22.73;39.17;102159.75;3107013;28;114597;-59
2021/03/04 07:52:29;;;;;;;;;;;;;;;22.75;39.10;102168.75;3107709;28;115502;-60